Time;durP1;ratioP1;P1;durP2;ratioP2;P2;SDS_P1;SDS_P2;PMS_P1;PMS_P2;Temp;Humidity;BMP_temperature;BMP_pressure;BME280_temperature;BME280_humidity;BME280_pressure;Samples;Min_cycle;Max_cycle;Signal;HPM_P1;HPM_P2
2023/02/05 00:11:14;;;;;;;5.50;2.38;;;;;;;-3.10;66.83;102160.09;30863302;28;96793;-72
2023/02/05 00:26:15;;;;;;;5.57;2.13;;;;;;;-2.84;67.50;102170.81;30860929;28;97381;-69
2023/02/05 00:41:17;;;;;;;3.25;1.95;;;;;;;-2.75;67.29;102155.84;30860686;28;96819;-69
2023/02/05 00:56:17;;;;;;;6.75;1.85;;;;;;;-3.06;67.36;102171.34;30859160;28;97562;-74
2023/02/05 01:11:18;;;;;;;6.20;2.05;;;;;;;-3.44;67.48;102186.03;30857962;28;96792;-70
2023/02/05 01:26:19;;;;;;;6.00;2.03;;;;;;;-3.03;68.72;102181.69;30855730;28;96771;-69
2023/02/05 01:41:19;;;;;;;4.70;2.95;;;;;;;-2.69;67.97;102186.16;30855946;28;97360;-74
2023/02/05 01:57:02;;;;;;;6.00;3.10;;;;;;;-2.96;67.19;102183.25;30855125;28;96625;-71
2023/02/05 02:12:03;;;;;;;6.35;2.63;;;;;;;-3.37;67.81;102177.19;30858580;28;96695;-72
2023/02/05 02:27:03;;;;;;;5.97;2.90;;;;;;;-3.20;69.30;102183.78;30873467;28;96719;-72
2023/02/05 02:42:22;;;;;;;6.10;2.92;;;;;;;-3.06;68.49;102169.56;30872370;28;97403;-68
2023/02/05 02:57:27;;;;;;;5.90;2.47;;;;;;;-3.45;68.51;102174.72;30871039;28;96623;-72
2023/02/05 03:12:27;;;;;;;3.93;2.70;;;;;;;-4.06;68.80;102179.34;30869373;28;96749;-71
2023/02/05 03:27:28;;;;;;;5.82;2.28;;;;;;;-4.43;69.90;102191.25;30867219;28;96809;-70
2023/02/05 03:42:50;;;;;;;6.68;2.83;;;;;;;-4.61;70.38;102187.22;30866123;28;96684;-72
2023/02/05 03:58:10;;;;;;;4.30;2.30;;;;;;;-4.80;70.62;102194.44;30864926;28;96718;-73
2023/02/05 04:13:10;;;;;;;6.82;3.08;;;;;;;-5.01;71.35;102186.94;30862677;28;96811;-74
2023/02/05 04:28:12;;;;;;;4.97;2.30;;;;;;;-5.10;71.34;102199.16;30860374;28;96857;-74
2023/02/05 04:43:12;;;;;;;7.18;3.33;;;;;;;-5.24;72.22;102211.47;30859560;28;97212;-72
2023/02/05 04:58:12;;;;;;;3.95;2.53;;;;;;;-5.32;72.37;102221.94;30859457;28;96751;-73
2023/02/05 05:13:13;;;;;;;4.55;3.28;;;;;;;-5.48;72.55;102252.44;30858385;28;97103;-67
2023/02/05 05:28:15;;;;;;;3.80;2.58;;;;;;;-5.62;73.01;102264.69;30856080;28;96695;-70
2023/02/05 05:58:38;;;;;;;4.25;2.70;;;;;;;-5.87;73.43;102295.22;30850964;28;97664;-68
2023/02/05 06:13:40;;;;;;;8.10;3.63;;;;;;;-5.90;73.78;102285.72;30852331;28;96881;-72
2023/02/05 06:28:40;;;;;;;6.03;3.38;;;;;;;-5.83;73.93;102307.31;30849591;28;96940;-73
2023/02/05 06:43:41;;;;;;;7.22;4.95;;;;;;;-5.60;74.33;102320.09;30850243;28;98454;-70
2023/02/05 06:58:41;;;;;;;7.07;3.38;;;;;;;-5.17;74.85;102340.44;30855066;28;97315;-73
2023/02/05 07:13:42;;;;;;;8.43;5.05;;;;;;;-4.04;75.43;102357.25;30867543;28;96624;-69
2023/02/05 07:28:43;;;;;;;6.90;3.97;;;;;;;-2.47;75.54;102379.66;30865425;28;96863;-70
2023/02/05 07:43:45;;;;;;;9.20;3.72;;;;;;;-0.87;73.86;102379.28;30865084;28;98025;-73
2023/02/05 07:58:45;;;;;;;6.93;3.58;;;;;;;0.75;72.21;102370.81;30862490;28;96618;-70
2023/02/05 08:13:46;;;;;;;8.45;5.40;;;;;;;2.26;70.29;102373.03;30860376;28;97645;-69
2023/02/05 08:28:46;;;;;;;8.95;4.53;;;;;;;4.05;66.18;102378.28;30857954;28;96728;-70
2023/02/05 08:43:48;;;;;;;7.20;3.83;;;;;;;5.61;65.32;102376.53;30848304;28;96935;-70
2023/02/05 08:58:49;;;;;;;6.83;3.80;;;;;;;16.81;50.44;102388.00;30847412;28;97073;-70
2023/02/05 09:13:49;;;;;;;8.13;4.75;;;;;;;22.05;38.22;102369.19;30846036;28;97659;-66
2023/02/05 09:28:50;;;;;;;9.05;5.20;;;;;;;21.59;29.90;102364.94;30843395;28;98262;-64
2023/02/05 09:43:50;;;;;;;8.88;5.45;;;;;;;26.34;22.64;102358.72;30842693;28;96701;-70
2023/02/05 09:58:53;;;;;;;5.03;2.90;;;;;;;18.48;23.76;102365.03;30834235;28;96882;-70
2023/02/05 10:14:23;;;;;;;3.90;2.60;;;;;;;8.92;31.94;102335.84;30851578;28;97207;-72
2023/02/05 10:29:41;;;;;;;4.90;2.10;;;;;;;5.62;36.16;102331.50;30855653;28;96958;-70
2023/02/05 10:44:47;;;;;;;1.88;1.23;;;;;;;3.35;38.43;102345.56;30869808;28;96495;-65
2023/02/05 10:59:57;;;;;;;7.90;2.05;;;;;;;2.18;40.60;102346.19;30867768;28;97312;-66
2023/02/05 11:15:00;;;;;;;3.92;1.55;;;;;;;1.55;42.37;102325.03;30865429;28;96781;-71
2023/02/05 11:30:22;;;;;;;3.13;2.10;;;;;;;1.66;42.64;102344.72;30864751;28;97198;-67
2023/02/05 11:45:24;;;;;;;4.65;2.20;;;;;;;1.81;42.95;102331.91;30864147;28;97238;-68
2023/02/05 12:00:25;;;;;;;4.20;1.70;;;;;;;2.01;43.09;102328.50;30862687;28;96849;-76
2023/02/05 12:15:55;;;;;;;2.67;1.60;;;;;;;1.82;43.39;102321.31;30839297;28;96852;-75
2023/02/05 12:31:27;;;;;;;13.70;2.10;;;;;;;2.10;43.41;102306.22;30850088;28;96619;-69
2023/02/05 12:46:42;;;;;;;6.97;2.53;;;;;;;2.56;43.10;102304.28;30871312;28;97505;-69
2023/02/05 13:01:46;;;;;;;;;;;;;;;2.23;43.79;102307.41;30856641;28;96877;-72
2023/02/05 13:17:01;;;;;;;7.38;2.38;;;;;;;1.98;43.97;102302.28;30855820;28;97701;-71
2023/02/05 13:32:10;;;;;;;7.00;2.50;;;;;;;1.45;45.90;102300.88;30854025;28;96667;-71
2023/02/05 13:47:18;;;;;;;6.80;2.35;;;;;;;1.37;46.40;102297.69;30852693;28;96761;-73
2023/02/05 14:02:44;;;;;;;6.18;2.40;;;;;;;1.05;46.98;102284.84;30847891;28;97309;-72
2023/02/05 14:17:44;;;;;;;5.85;3.22;;;;;;;0.81;47.39;102297.13;30872855;28;96811;-69
2023/02/05 14:32:44;;;;;;;6.70;2.88;;;;;;;0.71;47.82;102285.25;30866123;28;97227;-69
2023/02/05 14:47:45;;;;;;;5.72;2.60;;;;;;;0.54;48.28;102281.44;30867864;28;96864;-70
2023/02/05 15:02:48;;;;;;;6.32;3.13;;;;;;;0.39;48.83;102295.09;30813018;28;96890;-71
2023/02/05 15:17:50;;;;;;;7.80;3.20;;;;;;;-0.11;49.28;102315.06;30792971;28;97434;-71
2023/02/05 15:33:01;;;;;;;6.82;3.05;;;;;;;-0.29;50.18;102313.03;30742250;28;96859;-70
2023/02/05 15:48:10;;;;;;;5.32;2.75;;;;;;;-0.55;50.70;102314.66;30830277;28;96716;-67
2023/02/05 16:03:31;;;;;;;14.30;5.70;;;;;;;-1.49;51.51;102336.47;30861448;28;96675;-69
2023/02/05 16:18:37;;;;;;;24.02;8.20;;;;;;;-2.38;53.13;102331.59;30852529;28;96725;-66
2023/02/05 16:33:44;;;;;;;13.52;6.47;;;;;;;-2.90;53.91;102330.94;30869625;28;96908;-70
2023/02/05 16:48:45;;;;;;;17.23;8.23;;;;;;;-3.34;55.17;102345.69;30878480;28;97156;-72
2023/02/05 17:03:49;;;;;;;24.75;12.55;;;;;;;-3.61;56.42;102350.47;30866309;28;97157;-63
2023/02/05 17:18:58;;;;;;;25.30;11.70;;;;;;;-3.82;57.05;102362.97;30789239;28;97914;-71
2023/02/05 17:33:58;;;;;;;20.40;9.30;;;;;;;-4.08;58.14;102340.78;30781769;28;96798;-71
2023/02/05 17:48:59;;;;;;;31.73;15.65;;;;;;;-4.19;58.88;102347.06;30782834;28;97359;-65
2023/02/05 18:03:59;;;;;;;16.08;10.30;;;;;;;-4.33;59.60;102349.81;30776289;28;97913;-65
2023/02/05 18:19:00;;;;;;;16.33;9.93;;;;;;;-4.44;60.37;102344.81;30777155;28;97658;-71
2023/02/05 18:34:00;;;;;;;20.48;10.77;;;;;;;-4.49;60.98;102337.03;30777519;28;96786;-67
2023/02/05 18:49:01;;;;;;;21.70;11.05;;;;;;;-4.53;61.33;102340.56;30771003;28;97055;-61
2023/02/05 19:04:04;;;;;;;20.42;9.88;;;;;;;-4.53;62.00;102348.38;30787253;28;97108;-67
2023/02/05 19:19:05;;;;;;;17.50;10.57;;;;;;;-4.59;62.77;102354.50;30855908;28;96796;-65
2023/02/05 19:34:06;;;;;;;27.00;13.35;;;;;;;-4.54;63.59;102370.06;30855986;28;97250;-66
2023/02/05 19:49:11;;;;;;;26.77;14.88;;;;;;;-4.44;63.93;102384.69;30853500;28;97124;-67
2023/02/05 20:04:18;;;;;;;40.60;18.90;;;;;;;-4.38;64.28;102420.16;30851316;28;97415;-67
2023/02/05 20:19:19;;;;;;;36.05;20.23;;;;;;;-4.34;64.50;102439.22;30849051;28;97350;-65
2023/02/05 20:34:29;;;;;;;34.40;18.65;;;;;;;-4.45;64.89;102453.19;30849899;28;97423;-67
2023/02/05 20:49:32;;;;;;;41.55;18.38;;;;;;;-4.52;65.43;102474.97;30848418;28;96805;-65
2023/02/05 21:04:35;;;;;;;37.30;18.37;;;;;;;-4.56;65.81;102494.09;30861212;28;97605;-66
2023/02/05 21:19:35;;;;;;;39.33;18.00;;;;;;;-4.29;66.77;102510.25;30844390;28;97554;-66
2023/02/05 21:34:35;;;;;;;34.60;19.17;;;;;;;-3.86;66.83;102504.53;30840499;28;97200;-65
2023/02/05 21:49:36;;;;;;;42.03;22.48;;;;;;;-3.54;67.01;102505.84;30811641;28;98533;-65
2023/02/05 22:04:36;;;;;;;34.70;19.77;;;;;;;-3.36;66.93;102532.50;30731246;28;96838;-65
2023/02/05 22:19:37;;;;;;;45.17;21.70;;;;;;;-3.21;66.68;102516.66;30730732;28;96722;-67
2023/02/05 22:34:37;;;;;;;47.22;24.67;;;;;;;-3.08;67.41;102538.16;30744829;28;96710;-66
2023/02/05 22:49:38;;;;;;;44.05;23.05;;;;;;;-3.14;67.15;102565.22;30749047;28;96839;-69
2023/02/05 23:04:38;;;;;;;41.55;20.25;;;;;;;-3.51;66.81;102555.31;30748688;28;96606;-67
2023/02/05 23:19:39;;;;;;;38.95;21.00;;;;;;;-4.04;67.27;102547.31;30807483;28;97304;-67
2023/02/05 23:34:40;;;;;;;42.42;24.25;;;;;;;-4.22;67.79;102545.78;30865005;28;97006;-65
2023/02/05 23:49:40;;;;;;;43.10;25.25;;;;;;;-4.26;68.28;102523.25;30863805;28;97520;-66
